sensor_id;sensor_type;location;lat;lon;timestamp;pressure;altitude;pressure_sealevel;temperature;humidity
13734;BME280;43298;52.560;13.508;2022-09-13T00:00:54;100275.00;;;13.37;100.00
13734;BME280;43298;52.560;13.508;2022-09-13T00:03:20;100265.38;;;13.39;100.00
13734;BME280;43298;52.560;13.508;2022-09-13T00:05:47;100265.25;;;13.41;100.00
13734;BME280;43298;52.560;13.508;2022-09-13T00:08:13;100256.09;;;13.35;100.00
13734;BME280;43298;52.560;13.508;2022-09-13T00:10:41;100262.41;;;13.31;100.00
13734;BME280;43298;52.560;13.508;2022-09-13T00:13:09;100256.66;;;13.26;100.00
13734;BME280;43298;52.560;13.508;2022-09-13T00:15:36;100249.59;;;13.28;100.00
13734;BME280;43298;52.560;13.508;2022-09-13T00:18:02;100249.13;;;13.36;100.00
13734;BME280;43298;52.560;13.508;2022-09-13T00:20:28;100255.19;;;13.36;100.00
13734;BME280;43298;52.560;13.508;2022-09-13T00:22:54;100244.97;;;13.33;100.00
13734;BME280;43298;52.560;13.508;2022-09-13T00:25:20;100239.09;;;13.30;100.00
13734;BME280;43298;52.560;13.508;2022-09-13T00:27:46;100239.03;;;13.31;100.00
13734;BME280;43298;52.560;13.508;2022-09-13T00:30:12;100229.13;;;13.38;100.00
13734;BME280;43298;52.560;13.508;2022-09-13T00:32:38;100234.84;;;13.43;100.00
13734;BME280;43298;52.560;13.508;2022-09-13T00:35:06;100229.47;;;13.46;100.00
13734;BME280;43298;52.560;13.508;2022-09-13T00:37:32;100219.34;;;13.41;100.00
13734;BME280;43298;52.560;13.508;2022-09-13T00:39:59;100213.63;;;13.36;100.00
13734;BME280;43298;52.560;13.508;2022-09-13T00:42:28;100211.94;;;13.35;100.00
13734;BME280;43298;52.560;13.508;2022-09-13T00:45:02;100197.28;;;13.34;100.00
13734;BME280;43298;52.560;13.508;2022-09-13T00:50:41;100200.47;;;13.25;100.00
13734;BME280;43298;52.560;13.508;2022-09-13T00:53:16;100192.47;;;13.28;100.00
13734;BME280;43298;52.560;13.508;2022-09-13T00:55:49;100189.31;;;13.23;100.00
13734;BME280;43298;52.560;13.508;2022-09-13T00:58:33;100187.84;;;13.19;100.00
13734;BME280;43298;52.560;13.508;2022-09-13T01:01:02;100174.00;;;13.19;100.00
13734;BME280;43298;52.560;13.508;2022-09-13T01:03:32;100177.56;;;13.18;100.00
13734;BME280;43298;52.560;13.508;2022-09-13T01:06:18;100175.22;;;13.13;100.00
13734;BME280;43298;52.560;13.508;2022-09-13T01:08:49;100167.25;;;13.16;100.00
13734;BME280;43298;52.560;13.508;2022-09-13T01:11:46;100175.03;;;13.16;100.00
13734;BME280;43298;52.560;13.508;2022-09-13T01:14:21;100171.91;;;13.11;100.00
13734;BME280;43298;52.560;13.508;2022-09-13T01:16:49;100169.59;;;13.07;100.00
13734;BME280;43298;52.560;13.508;2022-09-13T01:19:15;100173.38;;;13.01;100.00
13734;BME280;43298;52.560;13.508;2022-09-13T01:28:16;100168.16;;;12.87;100.00
13734;BME280;43298;52.560;13.508;2022-09-13T01:31:24;100166.50;;;12.86;100.00
13734;BME280;43298;52.560;13.508;2022-09-13T01:37:08;100170.56;;;12.76;100.00
13734;BME280;43298;52.560;13.508;2022-09-13T01:51:27;100149.03;;;12.60;100.00
13734;BME280;43298;52.560;13.508;2022-09-13T01:54:21;100144.59;;;12.62;100.00
13734;BME280;43298;52.560;13.508;2022-09-13T01:57:36;100135.72;;;12.66;100.00
13734;BME280;43298;52.560;13.508;2022-09-13T02:00:12;100142.47;;;12.69;100.00
13734;BME280;43298;52.560;13.508;2022-09-13T02:02:56;100140.81;;;12.68;100.00
13734;BME280;43298;52.560;13.508;2022-09-13T02:05:53;100121.72;;;12.69;100.00
13734;BME280;43298;52.560;13.508;2022-09-13T02:08:51;100120.41;;;12.62;100.00
13734;BME280;43298;52.560;13.508;2022-09-13T02:11:18;100110.88;;;12.62;100.00
13734;BME280;43298;52.560;13.508;2022-09-13T02:14:14;100112.72;;;12.60;100.00
13734;BME280;43298;52.560;13.508;2022-09-13T02:20:02;100119.00;;;12.42;100.00
13734;BME280;43298;52.560;13.508;2022-09-13T02:22:34;100119.66;;;12.46;100.00
13734;BME280;43298;52.560;13.508;2022-09-13T02:25:13;100114.47;;;12.46;100.00
13734;BME280;43298;52.560;13.508;2022-09-13T02:27:46;100112.63;;;12.48;100.00
13734;BME280;43298;52.560;13.508;2022-09-13T02:30:14;100105.03;;;12.59;100.00
13734;BME280;43298;52.560;13.508;2022-09-13T02:38:35;100090.50;;;12.56;100.00
13734;BME280;43298;52.560;13.508;2022-09-13T02:43:46;100079.94;;;12.45;100.00
13734;BME280;43298;52.560;13.508;2022-09-13T02:52:42;100065.84;;;12.49;100.00
13734;BME280;43298;52.560;13.508;2022-09-13T02:55:25;100068.09;;;12.55;100.00
13734;BME280;43298;52.560;13.508;2022-09-13T02:58:05;100065.31;;;12.58;100.00
13734;BME280;43298;52.560;13.508;2022-09-13T03:00:34;100051.13;;;12.64;100.00
13734;BME280;43298;52.560;13.508;2022-09-13T03:03:04;100055.28;;;12.66;100.00
13734;BME280;43298;52.560;13.508;2022-09-13T03:05:32;100054.09;;;12.72;100.00
13734;BME280;43298;52.560;13.508;2022-09-13T03:07:58;100051.03;;;12.79;100.00
13734;BME280;43298;52.560;13.508;2022-09-13T03:10:29;100041.09;;;12.86;100.00
13734;BME280;43298;52.560;13.508;2022-09-13T03:13:33;100031.56;;;12.86;100.00
13734;BME280;43298;52.560;13.508;2022-09-13T03:16:32;100015.78;;;12.89;100.00
13734;BME280;43298;52.560;13.508;2022-09-13T03:22:55;100013.75;;;12.94;100.00
13734;BME280;43298;52.560;13.508;2022-09-13T03:31:34;100009.69;;;12.90;100.00
13734;BME280;43298;52.560;13.508;2022-09-13T03:37:02;100007.75;;;12.80;100.00
13734;BME280;43298;52.560;13.508;2022-09-13T03:39:47;100009.78;;;12.75;100.00
13734;BME280;43298;52.560;13.508;2022-09-13T03:42:35;100009.13;;;12.71;100.00
13734;BME280;43298;52.560;13.508;2022-09-13T03:45:05;100021.28;;;12.71;100.00
13734;BME280;43298;52.560;13.508;2022-09-13T03:47:35;100016.00;;;12.72;100.00
13734;BME280;43298;52.560;13.508;2022-09-13T03:50:04;100016.66;;;12.76;100.00
13734;BME280;43298;52.560;13.508;2022-09-13T03:52:32;100018.97;;;12.80;100.00
13734;BME280;43298;52.560;13.508;2022-09-13T03:54:58;100013.88;;;12.79;100.00
13734;BME280;43298;52.560;13.508;2022-09-13T03:57:24;100008.41;;;12.83;100.00
13734;BME280;43298;52.560;13.508;2022-09-13T03:59:53;100007.56;;;12.83;100.00
13734;BME280;43298;52.560;13.508;2022-09-13T04:02:20;99995.50;;;12.82;100.00
13734;BME280;43298;52.560;13.508;2022-09-13T04:04:46;99995.25;;;12.86;100.00
13734;BME280;43298;52.560;13.508;2022-09-13T04:07:17;99985.38;;;12.91;100.00
13734;BME280;43298;52.560;13.508;2022-09-13T04:09:43;99978.25;;;12.95;100.00
13734;BME280;43298;52.560;13.508;2022-09-13T04:12:11;99971.19;;;12.97;100.00
13734;BME280;43298;52.560;13.508;2022-09-13T04:14:38;99970.94;;;13.01;100.00
13734;BME280;43298;52.560;13.508;2022-09-13T04:17:04;99966.69;;;13.00;100.00
13734;BME280;43298;52.560;13.508;2022-09-13T04:19:31;99967.22;;;13.05;100.00
13734;BME280;43298;52.560;13.508;2022-09-13T04:21:57;99973.88;;;13.09;100.00
13734;BME280;43298;52.560;13.508;2022-09-13T04:24:27;99965.97;;;13.11;100.00
13734;BME280;43298;52.560;13.508;2022-09-13T04:26:54;99969.34;;;13.13;100.00
13734;BME280;43298;52.560;13.508;2022-09-13T04:29:22;99957.06;;;13.15;100.00
13734;BME280;43298;52.560;13.508;2022-09-13T04:31:50;99956.97;;;13.16;100.00
13734;BME280;43298;52.560;13.508;2022-09-13T04:34:16;99951.38;;;13.22;100.00
13734;BME280;43298;52.560;13.508;2022-09-13T04:36:44;99957.31;;;13.24;100.00
13734;BME280;43298;52.560;13.508;2022-09-13T04:39:10;99945.78;;;13.28;100.00
13734;BME280;43298;52.560;13.508;2022-09-13T04:41:42;99947.47;;;13.29;100.00
13734;BME280;43298;52.560;13.508;2022-09-13T04:44:10;99944.13;;;13.27;100.00
13734;BME280;43298;52.560;13.508;2022-09-13T04:46:36;99942.97;;;13.31;100.00
13734;BME280;43298;52.560;13.508;2022-09-13T04:49:02;99950.88;;;13.30;100.00
13734;BME280;43298;52.560;13.508;2022-09-13T04:51:28;99951.72;;;13.30;100.00
13734;BME280;43298;52.560;13.508;2022-09-13T04:53:55;99948.94;;;13.33;100.00
13734;BME280;43298;52.560;13.508;2022-09-13T04:56:23;99937.59;;;13.34;100.00
13734;BME280;43298;52.560;13.508;2022-09-13T04:58:54;99932.22;;;13.37;100.00
13734;BME280;43298;52.560;13.508;2022-09-13T05:01:21;99938.25;;;13.38;100.00
13734;BME280;43298;52.560;13.508;2022-09-13T05:03:49;99941.56;;;13.40;100.00
13734;BME280;43298;52.560;13.508;2022-09-13T05:06:16;99944.59;;;13.46;100.00
13734;BME280;43298;52.560;13.508;2022-09-13T05:08:43;99941.78;;;13.49;100.00
13734;BME280;43298;52.560;13.508;2022-09-13T05:11:09;99937.03;;;13.56;100.00
13734;BME280;43298;52.560;13.508;2022-09-13T05:13:35;99939.19;;;13.62;100.00
13734;BME280;43298;52.560;13.508;2022-09-13T05:16:04;99939.94;;;13.64;100.00
13734;BME280;43298;52.560;13.508;2022-09-13T05:18:34;99929.03;;;13.71;100.00
13734;BME280;43298;52.560;13.508;2022-09-13T05:21:03;99944.41;;;13.74;100.00
13734;BME280;43298;52.560;13.508;2022-09-13T05:23:30;99929.47;;;13.78;100.00
13734;BME280;43298;52.560;13.508;2022-09-13T05:26:02;99919.56;;;13.83;100.00
13734;BME280;43298;52.560;13.508;2022-09-13T05:28:31;99910.53;;;13.88;100.00
13734;BME280;43298;52.560;13.508;2022-09-13T05:31:35;99907.22;;;13.86;100.00
13734;BME280;43298;52.560;13.508;2022-09-13T05:33:59;99916.56;;;13.89;100.00
13734;BME280;43298;52.560;13.508;2022-09-13T05:36:25;99925.09;;;13.91;100.00
13734;BME280;43298;52.560;13.508;2022-09-13T05:38:53;99917.91;;;13.94;100.00
13734;BME280;43298;52.560;13.508;2022-09-13T05:41:19;99924.66;;;13.97;100.00
13734;BME280;43298;52.560;13.508;2022-09-13T05:43:45;99920.72;;;14.04;100.00
13734;BME280;43298;52.560;13.508;2022-09-13T05:46:13;99920.00;;;14.02;100.00
13734;BME280;43298;52.560;13.508;2022-09-13T05:48:40;99928.22;;;13.96;100.00
13734;BME280;43298;52.560;13.508;2022-09-13T05:51:20;99921.66;;;14.03;100.00
13734;BME280;43298;52.560;13.508;2022-09-13T05:53:49;99920.91;;;14.01;100.00
13734;BME280;43298;52.560;13.508;2022-09-13T05:56:19;99916.34;;;14.04;100.00
13734;BME280;43298;52.560;13.508;2022-09-13T05:58:47;99911.16;;;14.04;100.00
13734;BME280;43298;52.560;13.508;2022-09-13T06:01:16;99922.69;;;14.00;100.00
13734;BME280;43298;52.560;13.508;2022-09-13T06:03:42;99934.97;;;13.98;100.00
13734;BME280;43298;52.560;13.508;2022-09-13T06:06:09;99928.00;;;13.99;100.00
13734;BME280;43298;52.560;13.508;2022-09-13T06:08:35;99936.72;;;13.98;100.00
13734;BME280;43298;52.560;13.508;2022-09-13T06:11:05;99934.84;;;13.87;100.00
13734;BME280;43298;52.560;13.508;2022-09-13T06:13:32;99938.69;;;13.82;100.00
13734;BME280;43298;52.560;13.508;2022-09-13T06:15:59;99938.59;;;13.71;100.00
13734;BME280;43298;52.560;13.508;2022-09-13T06:18:26;99943.06;;;13.69;100.00
13734;BME280;43298;52.560;13.508;2022-09-13T06:21:14;99939.44;;;13.59;100.00
13734;BME280;43298;52.560;13.508;2022-09-13T06:23:50;99931.50;;;13.60;100.00
13734;BME280;43298;52.560;13.508;2022-09-13T06:26:25;99930.59;;;13.61;100.00
13734;BME280;43298;52.560;13.508;2022-09-13T06:28:54;99927.78;;;13.64;100.00
13734;BME280;43298;52.560;13.508;2022-09-13T06:31:23;99923.50;;;13.63;100.00
13734;BME280;43298;52.560;13.508;2022-09-13T06:33:55;99928.19;;;13.58;100.00
13734;BME280;43298;52.560;13.508;2022-09-13T06:36:21;99922.16;;;13.58;100.00
13734;BME280;43298;52.560;13.508;2022-09-13T06:38:48;99928.78;;;13.49;100.00
13734;BME280;43298;52.560;13.508;2022-09-13T06:41:22;99924.34;;;13.51;100.00
13734;BME280;43298;52.560;13.508;2022-09-13T06:43:53;99938.28;;;13.50;100.00
13734;BME280;43298;52.560;13.508;2022-09-13T06:46:20;99935.25;;;13.56;100.00
13734;BME280;43298;52.560;13.508;2022-09-13T06:48:46;99924.44;;;13.62;100.00
13734;BME280;43298;52.560;13.508;2022-09-13T06:51:16;99897.53;;;13.76;100.00
13734;BME280;43298;52.560;13.508;2022-09-13T06:53:44;99887.47;;;13.84;100.00
13734;BME280;43298;52.560;13.508;2022-09-13T06:56:13;99879.41;;;13.99;100.00
13734;BME280;43298;52.560;13.508;2022-09-13T06:58:41;99877.94;;;14.20;100.00
13734;BME280;43298;52.560;13.508;2022-09-13T07:01:27;99870.34;;;14.30;100.00
13734;BME280;43298;52.560;13.508;2022-09-13T07:03:58;99857.09;;;14.45;100.00
13734;BME280;43298;52.560;13.508;2022-09-13T07:06:32;99855.50;;;14.55;100.00
13734;BME280;43298;52.560;13.508;2022-09-13T07:09:00;99856.28;;;14.68;100.00
13734;BME280;43298;52.560;13.508;2022-09-13T07:11:29;99843.91;;;14.83;100.00
13734;BME280;43298;52.560;13.508;2022-09-13T07:13:57;99850.63;;;14.74;100.00
13734;BME280;43298;52.560;13.508;2022-09-13T07:16:29;99840.72;;;14.79;100.00
13734;BME280;43298;52.560;13.508;2022-09-13T07:18:59;99843.13;;;14.93;100.00
13734;BME280;43298;52.560;13.508;2022-09-13T07:21:26;99816.84;;;14.85;100.00
13734;BME280;43298;52.560;13.508;2022-09-13T07:23:54;99817.22;;;14.92;100.00
13734;BME280;43298;52.560;13.508;2022-09-13T07:26:20;99821.38;;;15.05;100.00
13734;BME280;43298;52.560;13.508;2022-09-13T07:28:49;99829.31;;;15.04;100.00
13734;BME280;43298;52.560;13.508;2022-09-13T07:31:26;99820.22;;;15.09;100.00
13734;BME280;43298;52.560;13.508;2022-09-13T07:34:06;99818.22;;;15.13;100.00
13734;BME280;43298;52.560;13.508;2022-09-13T07:36:35;99813.50;;;15.18;100.00
13734;BME280;43298;52.560;13.508;2022-09-13T07:39:02;99826.84;;;15.13;100.00
13734;BME280;43298;52.560;13.508;2022-09-13T07:41:30;99831.94;;;15.15;100.00
13734;BME280;43298;52.560;13.508;2022-09-13T07:43:57;99828.03;;;15.09;100.00
13734;BME280;43298;52.560;13.508;2022-09-13T07:46:26;99830.66;;;15.21;100.00
13734;BME280;43298;52.560;13.508;2022-09-13T07:48:55;99826.91;;;15.25;100.00
13734;BME280;43298;52.560;13.508;2022-09-13T07:51:27;99823.69;;;15.21;100.00
13734;BME280;43298;52.560;13.508;2022-09-13T07:53:56;99824.78;;;15.30;100.00
13734;BME280;43298;52.560;13.508;2022-09-13T07:56:25;99832.53;;;15.42;100.00
13734;BME280;43298;52.560;13.508;2022-09-13T07:58:53;99828.84;;;15.45;100.00
13734;BME280;43298;52.560;13.508;2022-09-13T08:01:27;99818.81;;;15.51;100.00
13734;BME280;43298;52.560;13.508;2022-09-13T08:03:55;99816.19;;;15.62;100.00
13734;BME280;43298;52.560;13.508;2022-09-13T08:06:22;99810.03;;;15.74;100.00
13734;BME280;43298;52.560;13.508;2022-09-13T08:08:49;99797.22;;;15.93;100.00
13734;BME280;43298;52.560;13.508;2022-09-13T08:11:25;99797.06;;;16.06;100.00
13734;BME280;43298;52.560;13.508;2022-09-13T08:13:52;99791.84;;;16.28;100.00
13734;BME280;43298;52.560;13.508;2022-09-13T08:16:21;99785.88;;;16.37;100.00
13734;BME280;43298;52.560;13.508;2022-09-13T08:18:51;99798.72;;;16.29;100.00
13734;BME280;43298;52.560;13.508;2022-09-13T08:21:17;99812.44;;;16.53;100.00
13734;BME280;43298;52.560;13.508;2022-09-13T08:23:44;99809.19;;;16.92;100.00
13734;BME280;43298;52.560;13.508;2022-09-13T08:26:10;99801.53;;;17.00;100.00
13734;BME280;43298;52.560;13.508;2022-09-13T08:28:37;99807.66;;;17.10;100.00
13734;BME280;43298;52.560;13.508;2022-09-13T08:31:11;99811.94;;;17.11;100.00
13734;BME280;43298;52.560;13.508;2022-09-13T08:33:38;99818.31;;;16.97;100.00
13734;BME280;43298;52.560;13.508;2022-09-13T08:36:04;99826.88;;;17.09;100.00
13734;BME280;43298;52.560;13.508;2022-09-13T08:38:30;99841.41;;;17.02;100.00
13734;BME280;43298;52.560;13.508;2022-09-13T08:41:36;99849.59;;;16.77;100.00
13734;BME280;43298;52.560;13.508;2022-09-13T08:44:36;99851.47;;;16.86;100.00
13734;BME280;43298;52.560;13.508;2022-09-13T08:50:21;99853.59;;;17.12;100.00
13734;BME280;43298;52.560;13.508;2022-09-13T08:53:17;99850.16;;;17.12;100.00
13734;BME280;43298;52.560;13.508;2022-09-13T09:07:40;99851.34;;;17.60;100.00
13734;BME280;43298;52.560;13.508;2022-09-13T09:10:23;99845.56;;;17.66;100.00
13734;BME280;43298;52.560;13.508;2022-09-13T09:13:04;99859.19;;;17.60;100.00
13734;BME280;43298;52.560;13.508;2022-09-13T09:15:38;99865.66;;;17.45;100.00
13734;BME280;43298;52.560;13.508;2022-09-13T09:18:17;99867.06;;;17.69;100.00
13734;BME280;43298;52.560;13.508;2022-09-13T09:20:50;99862.91;;;17.88;100.00
13734;BME280;43298;52.560;13.508;2022-09-13T09:23:25;99861.88;;;18.39;100.00
13734;BME280;43298;52.560;13.508;2022-09-13T09:28:38;99878.59;;;19.24;100.00
13734;BME280;43298;52.560;13.508;2022-09-13T09:31:12;99902.88;;;18.88;100.00
13734;BME280;43298;52.560;13.508;2022-09-13T09:36:45;99897.50;;;18.89;100.00
13734;BME280;43298;52.560;13.508;2022-09-13T09:39:14;99893.88;;;18.52;100.00
13734;BME280;43298;52.560;13.508;2022-09-13T09:41:43;99887.94;;;18.50;100.00
13734;BME280;43298;52.560;13.508;2022-09-13T09:46:42;99868.31;;;19.78;100.00
13734;BME280;43298;52.560;13.508;2022-09-13T09:49:31;99881.00;;;19.82;100.00
13734;BME280;43298;52.560;13.508;2022-09-13T09:52:21;99896.44;;;20.58;100.00
13734;BME280;43298;52.560;13.508;2022-09-13T09:54:55;99917.63;;;20.30;100.00
13734;BME280;43298;52.560;13.508;2022-09-13T09:57:54;99920.97;;;20.49;100.00
13734;BME280;43298;52.560;13.508;2022-09-13T10:00:24;99943.03;;;20.29;100.00
13734;BME280;43298;52.560;13.508;2022-09-13T10:03:04;99924.47;;;20.13;100.00
13734;BME280;43298;52.560;13.508;2022-09-13T10:05:31;99918.41;;;20.40;100.00
13734;BME280;43298;52.560;13.508;2022-09-13T10:08:04;99915.16;;;20.73;100.00
13734;BME280;43298;52.560;13.508;2022-09-13T10:10:43;99907.16;;;21.27;100.00
13734;BME280;43298;52.560;13.508;2022-09-13T10:13:20;99907.38;;;21.51;100.00
13734;BME280;43298;52.560;13.508;2022-09-13T10:15:56;99931.22;;;21.50;100.00
13734;BME280;43298;52.560;13.508;2022-09-13T10:18:25;99937.34;;;21.76;100.00
13734;BME280;43298;52.560;13.508;2022-09-13T10:23:44;99944.25;;;20.89;100.00
13734;BME280;43298;52.560;13.508;2022-09-13T10:26:18;99947.88;;;20.61;100.00
13734;BME280;43298;52.560;13.508;2022-09-13T10:31:19;99918.88;;;20.53;100.00
13734;BME280;43298;52.560;13.508;2022-09-13T10:34:06;99917.72;;;20.65;100.00
13734;BME280;43298;52.560;13.508;2022-09-13T10:36:37;99909.31;;;20.79;100.00
13734;BME280;43298;52.560;13.508;2022-09-13T10:39:18;99920.91;;;20.86;100.00
13734;BME280;43298;52.560;13.508;2022-09-13T10:42:06;99914.56;;;21.24;100.00
13734;BME280;43298;52.560;13.508;2022-09-13T10:44:43;99929.28;;;21.17;100.00
13734;BME280;43298;52.560;13.508;2022-09-13T10:47:46;99923.56;;;21.04;100.00
13734;BME280;43298;52.560;13.508;2022-09-13T10:50:26;99906.47;;;20.90;100.00
13734;BME280;43298;52.560;13.508;2022-09-13T10:52:54;99903.31;;;20.69;100.00
13734;BME280;43298;52.560;13.508;2022-09-13T10:55:34;99906.94;;;20.58;100.00
13734;BME280;43298;52.560;13.508;2022-09-13T11:07:06;99887.84;;;20.12;100.00
13734;BME280;43298;52.560;13.508;2022-09-13T11:10:03;99889.97;;;19.89;100.00
13734;BME280;43298;52.560;13.508;2022-09-13T11:19:30;99873.88;;;19.65;100.00
13734;BME280;43298;52.560;13.508;2022-09-13T11:39:29;99867.44;;;19.41;100.00
13734;BME280;43298;52.560;13.508;2022-09-13T11:45:47;99850.38;;;19.27;100.00
13734;BME280;43298;52.560;13.508;2022-09-13T11:51:44;99853.38;;;19.23;100.00
13734;BME280;43298;52.560;13.508;2022-09-13T11:57:47;99842.38;;;19.29;100.00
13734;BME280;43298;52.560;13.508;2022-09-13T12:00:34;99834.88;;;19.24;100.00
13734;BME280;43298;52.560;13.508;2022-09-13T12:03:17;99837.06;;;19.19;100.00
13734;BME280;43298;52.560;13.508;2022-09-13T12:05:53;99829.78;;;19.13;100.00
13734;BME280;43298;52.560;13.508;2022-09-13T12:08:31;99821.09;;;19.13;100.00
13734;BME280;43298;52.560;13.508;2022-09-13T12:11:28;99829.09;;;19.11;100.00
13734;BME280;43298;52.560;13.508;2022-09-13T12:14:00;99833.50;;;19.11;100.00
13734;BME280;43298;52.560;13.508;2022-09-13T12:16:44;99834.88;;;18.96;100.00
13734;BME280;43298;52.560;13.508;2022-09-13T12:19:40;99828.97;;;18.94;100.00
13734;BME280;43298;52.560;13.508;2022-09-13T12:22:08;99832.41;;;18.85;100.00
13734;BME280;43298;52.560;13.508;2022-09-13T12:27:28;99816.97;;;18.53;100.00
13734;BME280;43298;52.560;13.508;2022-09-13T12:30:22;99811.25;;;18.29;100.00
13734;BME280;43298;52.560;13.508;2022-09-13T12:32:49;99790.66;;;18.06;100.00
13734;BME280;43298;52.560;13.508;2022-09-13T12:35:29;99776.47;;;18.08;100.00
13734;BME280;43298;52.560;13.508;2022-09-13T12:44:17;99737.44;;;18.54;100.00
13734;BME280;43298;52.560;13.508;2022-09-13T12:49:59;99737.16;;;18.67;100.00
13734;BME280;43298;52.560;13.508;2022-09-13T12:52:50;99728.72;;;18.82;100.00
13734;BME280;43298;52.560;13.508;2022-09-13T13:01:45;99733.53;;;18.96;100.00
13734;BME280;43298;52.560;13.508;2022-09-13T13:04:33;99737.69;;;18.89;100.00
13734;BME280;43298;52.560;13.508;2022-09-13T13:07:06;99731.31;;;18.92;100.00
13734;BME280;43298;52.560;13.508;2022-09-13T13:09:55;99737.22;;;19.13;100.00
13734;BME280;43298;52.560;13.508;2022-09-13T13:12:36;99735.09;;;19.35;100.00
13734;BME280;43298;52.560;13.508;2022-09-13T13:17:56;99739.41;;;19.27;100.00
13734;BME280;43298;52.560;13.508;2022-09-13T13:23:35;99734.63;;;19.03;100.00
13734;BME280;43298;52.560;13.508;2022-09-13T13:26:50;99743.47;;;19.02;100.00
13734;BME280;43298;52.560;13.508;2022-09-13T13:29:30;99752.00;;;18.95;100.00
13734;BME280;43298;52.560;13.508;2022-09-13T13:39:43;99739.63;;;18.78;100.00
13734;BME280;43298;52.560;13.508;2022-09-13T13:52:39;99751.41;;;20.73;100.00
13734;BME280;43298;52.560;13.508;2022-09-13T13:55:43;99767.91;;;20.83;100.00
13734;BME280;43298;52.560;13.508;2022-09-13T13:59:10;99768.75;;;20.65;100.00
13734;BME280;43298;52.560;13.508;2022-09-13T14:01:21;99770.09;;;20.87;100.00
13734;BME280;43298;52.560;13.508;2022-09-13T14:07:05;99788.72;;;20.58;100.00
13734;BME280;43298;52.560;13.508;2022-09-13T14:10:01;99784.59;;;20.38;100.00
13734;BME280;43298;52.560;13.508;2022-09-13T14:20:30;99779.31;;;20.21;100.00
13734;BME280;43298;52.560;13.508;2022-09-13T14:23:18;99778.38;;;20.75;100.00
13734;BME280;43298;52.560;13.508;2022-09-13T14:25:45;99776.66;;;21.26;100.00
13734;BME280;43298;52.560;13.508;2022-09-13T14:28:18;99785.56;;;21.33;100.00
13734;BME280;43298;52.560;13.508;2022-09-13T14:30:46;99793.13;;;21.11;100.00
13734;BME280;43298;52.560;13.508;2022-09-13T14:33:30;99794.50;;;20.80;100.00
13734;BME280;43298;52.560;13.508;2022-09-13T14:36:04;99791.34;;;20.58;100.00
13734;BME280;43298;52.560;13.508;2022-09-13T14:38:34;99789.78;;;20.30;100.00
13734;BME280;43298;52.560;13.508;2022-09-13T14:41:16;99792.50;;;20.11;100.00
13734;BME280;43298;52.560;13.508;2022-09-13T14:43:44;99795.00;;;20.03;100.00
13734;BME280;43298;52.560;13.508;2022-09-13T14:49:04;99775.19;;;19.91;100.00
13734;BME280;43298;52.560;13.508;2022-09-13T14:51:45;99774.31;;;20.45;100.00
13734;BME280;43298;52.560;13.508;2022-09-13T14:54:27;99775.34;;;20.87;100.00
13734;BME280;43298;52.560;13.508;2022-09-13T14:56:58;99783.78;;;20.55;100.00
13734;BME280;43298;52.560;13.508;2022-09-13T14:59:30;99784.13;;;20.25;100.00
13734;BME280;43298;52.560;13.508;2022-09-13T15:02:22;99780.06;;;20.13;100.00
13734;BME280;43298;52.560;13.508;2022-09-13T15:04:53;99762.91;;;20.09;100.00
13734;BME280;43298;52.560;13.508;2022-09-13T15:07:28;99759.81;;;20.23;100.00
13734;BME280;43298;52.560;13.508;2022-09-13T15:13:09;99767.78;;;21.02;100.00
13734;BME280;43298;52.560;13.508;2022-09-13T15:15:42;99765.59;;;21.23;100.00
13734;BME280;43298;52.560;13.508;2022-09-13T15:23:30;99821.06;;;22.87;100.00
13734;BME280;43298;52.560;13.508;2022-09-13T15:26:22;99832.94;;;22.91;100.00
13734;BME280;43298;52.560;13.508;2022-09-13T15:28:52;99837.72;;;23.36;100.00
13734;BME280;43298;52.560;13.508;2022-09-13T15:31:31;99837.22;;;23.41;100.00
13734;BME280;43298;52.560;13.508;2022-09-13T15:36:42;99856.53;;;23.09;100.00
13734;BME280;43298;52.560;13.508;2022-09-13T15:41:39;99842.06;;;21.98;100.00
13734;BME280;43298;52.560;13.508;2022-09-13T15:44:07;99831.50;;;22.39;100.00
13734;BME280;43298;52.560;13.508;2022-09-13T15:46:47;99830.16;;;21.94;100.00
13734;BME280;43298;52.560;13.508;2022-09-13T15:49:19;99823.69;;;22.22;100.00
13734;BME280;43298;52.560;13.508;2022-09-13T15:51:46;99824.97;;;22.51;100.00
13734;BME280;43298;52.560;13.508;2022-09-13T15:54:16;99829.78;;;21.81;100.00
13734;BME280;43298;52.560;13.508;2022-09-13T15:56:45;99810.78;;;21.18;100.00
13734;BME280;43298;52.560;13.508;2022-09-13T15:59:18;99802.13;;;20.91;100.00
13734;BME280;43298;52.560;13.508;2022-09-13T16:01:46;99790.06;;;20.80;100.00
13734;BME280;43298;52.560;13.508;2022-09-13T16:04:12;99786.59;;;21.15;100.00
13734;BME280;43298;52.560;13.508;2022-09-13T16:06:38;99782.31;;;21.14;100.00
13734;BME280;43298;52.560;13.508;2022-09-13T16:09:19;99791.78;;;21.07;100.00
13734;BME280;43298;52.560;13.508;2022-09-13T16:11:46;99774.66;;;20.85;100.00
13734;BME280;43298;52.560;13.508;2022-09-13T16:14:14;99771.69;;;20.63;100.00
13734;BME280;43298;52.560;13.508;2022-09-13T16:16:40;99761.91;;;20.20;100.00
13734;BME280;43298;52.560;13.508;2022-09-13T16:19:18;99752.63;;;19.98;100.00
13734;BME280;43298;52.560;13.508;2022-09-13T16:21:44;99735.47;;;19.77;100.00
13734;BME280;43298;52.560;13.508;2022-09-13T16:24:10;99731.53;;;19.63;100.00
13734;BME280;43298;52.560;13.508;2022-09-13T16:26:36;99728.69;;;19.47;100.00
13734;BME280;43298;52.560;13.508;2022-09-13T16:29:03;99714.13;;;19.35;100.00